sensor_id;sensor_type;location;lat;lon;timestamp;temperature;humidity
28614;DHT22;15806;53.548;9.964;2024-03-23T00:55:12;8.40;99.90
28614;DHT22;15806;53.548;9.964;2024-03-23T00:56:52;8.40;99.90
28614;DHT22;15806;53.548;9.964;2024-03-23T00:58:33;8.40;99.90
28614;DHT22;15806;53.548;9.964;2024-03-23T01:00:14;8.40;99.90
28614;DHT22;15806;53.548;9.964;2024-03-23T01:01:55;8.40;99.90
28614;DHT22;15806;53.548;9.964;2024-03-23T01:03:35;8.50;99.90
28614;DHT22;15806;53.548;9.964;2024-03-23T01:05:16;8.40;99.90
28614;DHT22;15806;53.548;9.964;2024-03-23T01:06:56;8.40;99.90
28614;DHT22;15806;53.548;9.964;2024-03-23T01:08:37;8.40;99.90
28614;DHT22;15806;53.548;9.964;2024-03-23T01:10:17;8.40;99.90
28614;DHT22;15806;53.548;9.964;2024-03-23T01:11:58;8.40;99.90
28614;DHT22;15806;53.548;9.964;2024-03-23T01:13:38;8.50;99.90
28614;DHT22;15806;53.548;9.964;2024-03-23T01:15:19;8.40;99.90
28614;DHT22;15806;53.548;9.964;2024-03-23T01:16:59;8.50;99.90
28614;DHT22;15806;53.548;9.964;2024-03-23T01:18:40;8.50;99.90
28614;DHT22;15806;53.548;9.964;2024-03-23T01:20:20;8.50;99.90
28614;DHT22;15806;53.548;9.964;2024-03-23T01:22:01;8.50;99.90
28614;DHT22;15806;53.548;9.964;2024-03-23T01:23:41;8.50;99.90
28614;DHT22;15806;53.548;9.964;2024-03-23T01:25:22;8.50;99.90
28614;DHT22;15806;53.548;9.964;2024-03-23T01:27:02;8.50;99.90
28614;DHT22;15806;53.548;9.964;2024-03-23T01:28:43;8.50;99.90
28614;DHT22;15806;53.548;9.964;2024-03-23T01:30:23;8.50;99.90
28614;DHT22;15806;53.548;9.964;2024-03-23T01:32:04;8.50;99.90
28614;DHT22;15806;53.548;9.964;2024-03-23T01:33:45;8.50;99.90
28614;DHT22;15806;53.548;9.964;2024-03-23T01:35:26;8.50;99.90
28614;DHT22;15806;53.548;9.964;2024-03-23T01:37:06;8.50;99.90
28614;DHT22;15806;53.548;9.964;2024-03-23T01:38:47;8.50;99.90
28614;DHT22;15806;53.548;9.964;2024-03-23T01:40:27;8.50;99.90
28614;DHT22;15806;53.548;9.964;2024-03-23T01:42:08;8.60;99.90
28614;DHT22;15806;53.548;9.964;2024-03-23T01:43:48;8.50;99.90
28614;DHT22;15806;53.548;9.964;2024-03-23T01:45:30;8.60;99.90
28614;DHT22;15806;53.548;9.964;2024-03-23T01:47:10;8.50;99.90
28614;DHT22;15806;53.548;9.964;2024-03-23T01:48:51;8.60;99.90
28614;DHT22;15806;53.548;9.964;2024-03-23T01:50:33;8.60;99.90
28614;DHT22;15806;53.548;9.964;2024-03-23T01:52:14;8.50;99.90
28614;DHT22;15806;53.548;9.964;2024-03-23T01:53:54;8.50;99.90
28614;DHT22;15806;53.548;9.964;2024-03-23T01:55:36;8.50;99.90
28614;DHT22;15806;53.548;9.964;2024-03-23T01:57:17;8.50;99.90
28614;DHT22;15806;53.548;9.964;2024-03-23T01:58:58;8.50;99.90
28614;DHT22;15806;53.548;9.964;2024-03-23T02:00:38;8.50;99.90
28614;DHT22;15806;53.548;9.964;2024-03-23T02:02:19;8.50;99.90
28614;DHT22;15806;53.548;9.964;2024-03-23T02:03:59;8.50;99.90
28614;DHT22;15806;53.548;9.964;2024-03-23T02:05:40;8.50;99.90
28614;DHT22;15806;53.548;9.964;2024-03-23T02:07:21;8.50;99.90
28614;DHT22;15806;53.548;9.964;2024-03-23T02:09:01;8.50;99.90
28614;DHT22;15806;53.548;9.964;2024-03-23T02:10:42;8.50;99.90
28614;DHT22;15806;53.548;9.964;2024-03-23T02:12:23;8.50;99.90
28614;DHT22;15806;53.548;9.964;2024-03-23T02:14:03;8.50;99.90
28614;DHT22;15806;53.548;9.964;2024-03-23T02:15:44;8.50;99.90
28614;DHT22;15806;53.548;9.964;2024-03-23T02:17:24;8.50;99.90
28614;DHT22;15806;53.548;9.964;2024-03-23T02:19:05;8.50;99.90
28614;DHT22;15806;53.548;9.964;2024-03-23T02:20:45;8.50;99.90
28614;DHT22;15806;53.548;9.964;2024-03-23T02:22:37;8.50;99.90
28614;DHT22;15806;53.548;9.964;2024-03-23T02:24:17;8.50;99.90
28614;DHT22;15806;53.548;9.964;2024-03-23T02:25:58;8.50;99.90
28614;DHT22;15806;53.548;9.964;2024-03-23T02:27:38;8.50;99.90
28614;DHT22;15806;53.548;9.964;2024-03-23T02:29:19;8.40;99.90
28614;DHT22;15806;53.548;9.964;2024-03-23T02:30:59;8.50;99.90
28614;DHT22;15806;53.548;9.964;2024-03-23T02:32:40;8.40;99.90
28614;DHT22;15806;53.548;9.964;2024-03-23T02:34:20;8.40;99.90
28614;DHT22;15806;53.548;9.964;2024-03-23T02:36:01;8.40;99.90
28614;DHT22;15806;53.548;9.964;2024-03-23T02:37:41;8.50;99.90
28614;DHT22;15806;53.548;9.964;2024-03-23T02:39:22;8.50;99.90
28614;DHT22;15806;53.548;9.964;2024-03-23T02:41:03;8.50;99.90
28614;DHT22;15806;53.548;9.964;2024-03-23T02:42:44;8.50;99.90
28614;DHT22;15806;53.548;9.964;2024-03-23T02:44:24;8.40;99.90
28614;DHT22;15806;53.548;9.964;2024-03-23T02:46:05;8.50;99.90
28614;DHT22;15806;53.548;9.964;2024-03-23T02:47:45;8.40;99.90
28614;DHT22;15806;53.548;9.964;2024-03-23T02:49:26;8.40;99.90
28614;DHT22;15806;53.548;9.964;2024-03-23T02:51:07;8.40;99.90
28614;DHT22;15806;53.548;9.964;2024-03-23T02:52:48;8.40;99.90
28614;DHT22;15806;53.548;9.964;2024-03-23T02:54:28;8.40;99.90
28614;DHT22;15806;53.548;9.964;2024-03-23T02:56:09;8.40;99.90
28614;DHT22;15806;53.548;9.964;2024-03-23T02:57:49;8.40;99.90
28614;DHT22;15806;53.548;9.964;2024-03-23T02:59:30;8.40;99.90
28614;DHT22;15806;53.548;9.964;2024-03-23T03:01:10;8.40;99.90
28614;DHT22;15806;53.548;9.964;2024-03-23T03:02:51;8.40;99.90
28614;DHT22;15806;53.548;9.964;2024-03-23T03:04:31;8.40;99.90
28614;DHT22;15806;53.548;9.964;2024-03-23T03:06:25;8.40;99.90
28614;DHT22;15806;53.548;9.964;2024-03-23T03:08:06;8.40;99.90
28614;DHT22;15806;53.548;9.964;2024-03-23T03:09:46;8.30;99.90
28614;DHT22;15806;53.548;9.964;2024-03-23T03:11:27;8.30;99.90
28614;DHT22;15806;53.548;9.964;2024-03-23T03:13:07;8.30;99.90
28614;DHT22;15806;53.548;9.964;2024-03-23T03:14:48;8.40;99.90
28614;DHT22;15806;53.548;9.964;2024-03-23T03:16:28;8.40;99.90
28614;DHT22;15806;53.548;9.964;2024-03-23T03:18:09;8.30;99.90
28614;DHT22;15806;53.548;9.964;2024-03-23T03:19:49;8.40;99.90
28614;DHT22;15806;53.548;9.964;2024-03-23T03:21:30;8.40;99.90
28614;DHT22;15806;53.548;9.964;2024-03-23T03:23:10;8.30;99.90
28614;DHT22;15806;53.548;9.964;2024-03-23T03:24:51;8.40;99.90
28614;DHT22;15806;53.548;9.964;2024-03-23T03:26:31;8.30;99.90
28614;DHT22;15806;53.548;9.964;2024-03-23T03:28:12;8.30;99.90
28614;DHT22;15806;53.548;9.964;2024-03-23T03:29:52;8.30;99.90
28614;DHT22;15806;53.548;9.964;2024-03-23T03:31:33;8.30;99.90
28614;DHT22;15806;53.548;9.964;2024-03-23T03:33:13;8.30;99.90
28614;DHT22;15806;53.548;9.964;2024-03-23T03:34:54;8.30;99.90
28614;DHT22;15806;53.548;9.964;2024-03-23T03:36:34;8.30;99.90
28614;DHT22;15806;53.548;9.964;2024-03-23T03:38:15;8.30;99.90
28614;DHT22;15806;53.548;9.964;2024-03-23T03:39:55;8.30;99.90
28614;DHT22;15806;53.548;9.964;2024-03-23T03:41:36;8.30;99.90
28614;DHT22;15806;53.548;9.964;2024-03-23T03:43:16;8.30;99.90
28614;DHT22;15806;53.548;9.964;2024-03-23T03:44:57;8.40;99.90
28614;DHT22;15806;53.548;9.964;2024-03-23T03:46:37;8.30;99.90
28614;DHT22;15806;53.548;9.964;2024-03-23T03:48:18;8.40;99.90
28614;DHT22;15806;53.548;9.964;2024-03-23T03:49:58;8.30;99.90
28614;DHT22;15806;53.548;9.964;2024-03-23T03:51:39;8.40;99.90
28614;DHT22;15806;53.548;9.964;2024-03-23T03:53:20;8.40;99.90
28614;DHT22;15806;53.548;9.964;2024-03-23T03:55:03;8.40;99.90
28614;DHT22;15806;53.548;9.964;2024-03-23T03:56:51;8.40;99.90
28614;DHT22;15806;53.548;9.964;2024-03-23T03:58:32;8.40;99.90
28614;DHT22;15806;53.548;9.964;2024-03-23T04:00:12;8.30;99.90
28614;DHT22;15806;53.548;9.964;2024-03-23T04:01:53;8.30;99.90
28614;DHT22;15806;53.548;9.964;2024-03-23T04:03:34;8.30;99.90
28614;DHT22;15806;53.548;9.964;2024-03-23T04:05:15;8.30;99.90
28614;DHT22;15806;53.548;9.964;2024-03-23T04:07:02;8.30;99.90
28614;DHT22;15806;53.548;9.964;2024-03-23T04:08:42;8.30;99.90
28614;DHT22;15806;53.548;9.964;2024-03-23T04:10:23;8.30;99.90
28614;DHT22;15806;53.548;9.964;2024-03-23T04:12:04;8.30;99.90
28614;DHT22;15806;53.548;9.964;2024-03-23T04:13:44;8.30;99.90
28614;DHT22;15806;53.548;9.964;2024-03-23T04:15:25;8.20;99.90
28614;DHT22;15806;53.548;9.964;2024-03-23T04:17:06;8.20;99.90
28614;DHT22;15806;53.548;9.964;2024-03-23T04:18:46;8.30;99.90
28614;DHT22;15806;53.548;9.964;2024-03-23T04:20:27;8.30;99.90
28614;DHT22;15806;53.548;9.964;2024-03-23T04:22:07;8.30;99.90
28614;DHT22;15806;53.548;9.964;2024-03-23T04:23:48;8.30;99.90
28614;DHT22;15806;53.548;9.964;2024-03-23T04:25:28;8.30;99.90
28614;DHT22;15806;53.548;9.964;2024-03-23T04:27:09;8.30;99.90
28614;DHT22;15806;53.548;9.964;2024-03-23T04:28:49;8.30;99.90
28614;DHT22;15806;53.548;9.964;2024-03-23T04:30:30;8.30;99.90
28614;DHT22;15806;53.548;9.964;2024-03-23T04:32:10;8.20;99.90
28614;DHT22;15806;53.548;9.964;2024-03-23T04:33:51;8.20;99.90
28614;DHT22;15806;53.548;9.964;2024-03-23T04:35:31;8.20;99.90
28614;DHT22;15806;53.548;9.964;2024-03-23T04:37:12;8.10;99.90
28614;DHT22;15806;53.548;9.964;2024-03-23T04:38:52;8.10;99.90
28614;DHT22;15806;53.548;9.964;2024-03-23T04:40:33;8.10;99.90
28614;DHT22;15806;53.548;9.964;2024-03-23T04:42:15;8.10;99.90
28614;DHT22;15806;53.548;9.964;2024-03-23T04:43:56;8.10;99.90
28614;DHT22;15806;53.548;9.964;2024-03-23T04:45:36;8.10;99.90
28614;DHT22;15806;53.548;9.964;2024-03-23T04:47:16;8.10;99.90
28614;DHT22;15806;53.548;9.964;2024-03-23T04:48:57;8.10;99.90
28614;DHT22;15806;53.548;9.964;2024-03-23T04:50:37;8.10;99.90
28614;DHT22;15806;53.548;9.964;2024-03-23T04:52:18;8.00;99.90
28614;DHT22;15806;53.548;9.964;2024-03-23T04:53:59;8.00;99.90
28614;DHT22;15806;53.548;9.964;2024-03-23T04:55:39;8.00;99.90
28614;DHT22;15806;53.548;9.964;2024-03-23T04:57:20;8.00;99.90
28614;DHT22;15806;53.548;9.964;2024-03-23T04:59:00;7.90;99.90
28614;DHT22;15806;53.548;9.964;2024-03-23T05:00:41;8.00;99.90
28614;DHT22;15806;53.548;9.964;2024-03-23T05:02:21;8.00;99.90
28614;DHT22;15806;53.548;9.964;2024-03-23T05:04:02;8.00;99.90
28614;DHT22;15806;53.548;9.964;2024-03-23T05:05:44;8.00;99.90
28614;DHT22;15806;53.548;9.964;2024-03-23T05:07:24;7.90;99.90
28614;DHT22;15806;53.548;9.964;2024-03-23T05:09:05;7.90;99.90
28614;DHT22;15806;53.548;9.964;2024-03-23T05:10:45;7.90;99.90
28614;DHT22;15806;53.548;9.964;2024-03-23T05:12:26;7.90;99.90
28614;DHT22;15806;53.548;9.964;2024-03-23T05:14:06;7.90;99.90
28614;DHT22;15806;53.548;9.964;2024-03-23T05:15:53;7.90;99.90
28614;DHT22;15806;53.548;9.964;2024-03-23T05:17:34;7.90;99.90
28614;DHT22;15806;53.548;9.964;2024-03-23T05:19:15;7.90;99.90
28614;DHT22;15806;53.548;9.964;2024-03-23T05:20:56;7.90;99.90
28614;DHT22;15806;53.548;9.964;2024-03-23T05:22:37;7.90;99.90
28614;DHT22;15806;53.548;9.964;2024-03-23T05:24:17;7.80;99.90
28614;DHT22;15806;53.548;9.964;2024-03-23T05:25:58;7.80;99.90
28614;DHT22;15806;53.548;9.964;2024-03-23T05:27:38;7.80;99.90
28614;DHT22;15806;53.548;9.964;2024-03-23T05:29:19;7.80;99.90
28614;DHT22;15806;53.548;9.964;2024-03-23T05:30:59;7.70;99.90
28614;DHT22;15806;53.548;9.964;2024-03-23T05:32:40;7.70;99.90
28614;DHT22;15806;53.548;9.964;2024-03-23T05:34:20;7.80;99.90
28614;DHT22;15806;53.548;9.964;2024-03-23T05:36:02;7.70;99.90
28614;DHT22;15806;53.548;9.964;2024-03-23T05:37:42;7.70;99.90
28614;DHT22;15806;53.548;9.964;2024-03-23T05:39:23;7.70;99.90
28614;DHT22;15806;53.548;9.964;2024-03-23T05:41:03;7.70;99.90
28614;DHT22;15806;53.548;9.964;2024-03-23T05:42:44;7.70;99.90
28614;DHT22;15806;53.548;9.964;2024-03-23T05:44:24;7.60;99.90
28614;DHT22;15806;53.548;9.964;2024-03-23T05:46:05;7.60;99.90
28614;DHT22;15806;53.548;9.964;2024-03-23T05:47:45;7.50;99.90
28614;DHT22;15806;53.548;9.964;2024-03-23T05:49:26;7.60;99.90
28614;DHT22;15806;53.548;9.964;2024-03-23T05:51:06;7.60;99.90
28614;DHT22;15806;53.548;9.964;2024-03-23T05:52:47;7.50;99.90
28614;DHT22;15806;53.548;9.964;2024-03-23T05:54:27;7.50;99.90
28614;DHT22;15806;53.548;9.964;2024-03-23T05:56:08;7.50;99.90
28614;DHT22;15806;53.548;9.964;2024-03-23T05:57:48;7.50;99.90
28614;DHT22;15806;53.548;9.964;2024-03-23T05:59:29;7.50;99.90
28614;DHT22;15806;53.548;9.964;2024-03-23T06:01:09;7.50;99.90
28614;DHT22;15806;53.548;9.964;2024-03-23T06:02:50;7.60;99.90
28614;DHT22;15806;53.548;9.964;2024-03-23T06:04:31;7.60;99.90
28614;DHT22;15806;53.548;9.964;2024-03-23T06:06:11;7.50;99.90
28614;DHT22;15806;53.548;9.964;2024-03-23T06:07:52;7.50;99.90
28614;DHT22;15806;53.548;9.964;2024-03-23T06:09:32;7.50;99.90
28614;DHT22;15806;53.548;9.964;2024-03-23T06:11:13;7.60;99.90
28614;DHT22;15806;53.548;9.964;2024-03-23T06:12:53;7.50;99.90
28614;DHT22;15806;53.548;9.964;2024-03-23T06:14:34;7.60;99.90
28614;DHT22;15806;53.548;9.964;2024-03-23T06:16:15;7.60;99.90
28614;DHT22;15806;53.548;9.964;2024-03-23T06:17:55;7.60;99.90
28614;DHT22;15806;53.548;9.964;2024-03-23T06:19:36;7.60;99.90
28614;DHT22;15806;53.548;9.964;2024-03-23T06:21:16;7.60;99.90
28614;DHT22;15806;53.548;9.964;2024-03-23T06:22:57;7.60;99.90
28614;DHT22;15806;53.548;9.964;2024-03-23T06:24:38;7.60;99.90
28614;DHT22;15806;53.548;9.964;2024-03-23T06:26:19;7.70;99.90
28614;DHT22;15806;53.548;9.964;2024-03-23T06:27:59;7.60;99.90
28614;DHT22;15806;53.548;9.964;2024-03-23T06:29:40;7.60;99.90
28614;DHT22;15806;53.548;9.964;2024-03-23T06:31:20;7.60;99.90
28614;DHT22;15806;53.548;9.964;2024-03-23T06:33:01;7.60;99.90
28614;DHT22;15806;53.548;9.964;2024-03-23T06:34:42;7.70;99.90
28614;DHT22;15806;53.548;9.964;2024-03-23T06:36:22;7.70;99.90
28614;DHT22;15806;53.548;9.964;2024-03-23T06:38:03;7.60;99.90
28614;DHT22;15806;53.548;9.964;2024-03-23T06:39:46;7.60;99.90
28614;DHT22;15806;53.548;9.964;2024-03-23T06:41:27;7.60;99.90
28614;DHT22;15806;53.548;9.964;2024-03-23T06:43:07;7.60;99.90
28614;DHT22;15806;53.548;9.964;2024-03-23T06:44:48;7.60;99.90
28614;DHT22;15806;53.548;9.964;2024-03-23T06:46:28;7.60;99.90
28614;DHT22;15806;53.548;9.964;2024-03-23T06:48:09;7.70;99.90
28614;DHT22;15806;53.548;9.964;2024-03-23T06:49:49;7.70;99.90
28614;DHT22;15806;53.548;9.964;2024-03-23T06:51:30;7.80;99.90
28614;DHT22;15806;53.548;9.964;2024-03-23T06:53:10;7.80;99.90
28614;DHT22;15806;53.548;9.964;2024-03-23T06:54:51;7.60;99.90
28614;DHT22;15806;53.548;9.964;2024-03-23T06:56:31;7.50;99.90
28614;DHT22;15806;53.548;9.964;2024-03-23T06:58:12;7.60;99.90
28614;DHT22;15806;53.548;9.964;2024-03-23T06:59:52;7.80;99.90
28614;DHT22;15806;53.548;9.964;2024-03-23T07:01:33;7.80;99.90
28614;DHT22;15806;53.548;9.964;2024-03-23T07:03:14;7.80;99.90
28614;DHT22;15806;53.548;9.964;2024-03-23T07:04:54;7.70;99.90
28614;DHT22;15806;53.548;9.964;2024-03-23T07:06:42;7.60;99.90
28614;DHT22;15806;53.548;9.964;2024-03-23T07:08:23;7.60;99.90
28614;DHT22;15806;53.548;9.964;2024-03-23T07:10:04;7.50;99.90
28614;DHT22;15806;53.548;9.964;2024-03-23T07:11:45;7.50;99.90
28614;DHT22;15806;53.548;9.964;2024-03-23T07:13:25;7.60;99.90
28614;DHT22;15806;53.548;9.964;2024-03-23T07:15:06;7.50;99.90
28614;DHT22;15806;53.548;9.964;2024-03-23T07:16:47;7.50;99.90
28614;DHT22;15806;53.548;9.964;2024-03-23T07:18:27;7.60;99.90
28614;DHT22;15806;53.548;9.964;2024-03-23T07:20:08;7.50;99.90
28614;DHT22;15806;53.548;9.964;2024-03-23T07:21:49;7.50;99.90
28614;DHT22;15806;53.548;9.964;2024-03-23T07:23:29;7.60;99.90
28614;DHT22;15806;53.548;9.964;2024-03-23T07:25:10;7.70;99.90
28614;DHT22;15806;53.548;9.964;2024-03-23T07:26:50;7.70;99.90
28614;DHT22;15806;53.548;9.964;2024-03-23T07:28:31;7.70;99.90
28614;DHT22;15806;53.548;9.964;2024-03-23T07:30:12;7.70;99.90
28614;DHT22;15806;53.548;9.964;2024-03-23T07:31:52;7.80;99.90
28614;DHT22;15806;53.548;9.964;2024-03-23T07:33:33;7.80;99.90
28614;DHT22;15806;53.548;9.964;2024-03-23T07:35:13;7.80;99.90
28614;DHT22;15806;53.548;9.964;2024-03-23T07:36:54;7.90;99.90
28614;DHT22;15806;53.548;9.964;2024-03-23T07:38:34;8.00;99.90
28614;DHT22;15806;53.548;9.964;2024-03-23T07:40:15;7.90;99.90
28614;DHT22;15806;53.548;9.964;2024-03-23T07:41:56;8.00;99.90
28614;DHT22;15806;53.548;9.964;2024-03-23T07:43:37;8.10;99.90
28614;DHT22;15806;53.548;9.964;2024-03-23T07:45:18;7.90;99.90
28614;DHT22;15806;53.548;9.964;2024-03-23T07:47:02;7.90;99.90
28614;DHT22;15806;53.548;9.964;2024-03-23T07:48:43;7.90;99.90
28614;DHT22;15806;53.548;9.964;2024-03-23T07:50:23;7.90;99.90
28614;DHT22;15806;53.548;9.964;2024-03-23T07:52:04;7.90;99.90
28614;DHT22;15806;53.548;9.964;2024-03-23T07:53:45;8.00;99.90
28614;DHT22;15806;53.548;9.964;2024-03-23T07:55:27;8.20;99.90
28614;DHT22;15806;53.548;9.964;2024-03-23T07:57:07;8.20;99.90
28614;DHT22;15806;53.548;9.964;2024-03-23T07:58:48;8.10;99.90
28614;DHT22;15806;53.548;9.964;2024-03-23T08:00:28;8.20;99.90
28614;DHT22;15806;53.548;9.964;2024-03-23T08:02:09;8.10;99.90
28614;DHT22;15806;53.548;9.964;2024-03-23T08:03:49;8.30;99.90
28614;DHT22;15806;53.548;9.964;2024-03-23T08:05:30;8.20;99.90
28614;DHT22;15806;53.548;9.964;2024-03-23T08:07:10;8.40;99.90
28614;DHT22;15806;53.548;9.964;2024-03-23T08:08:54;8.50;99.90
28614;DHT22;15806;53.548;9.964;2024-03-23T08:10:35;8.40;99.90
28614;DHT22;15806;53.548;9.964;2024-03-23T08:12:15;8.40;99.90
28614;DHT22;15806;53.548;9.964;2024-03-23T08:13:56;8.50;99.90
28614;DHT22;15806;53.548;9.964;2024-03-23T08:15:37;8.50;99.90
28614;DHT22;15806;53.548;9.964;2024-03-23T08:17:18;8.60;99.90
28614;DHT22;15806;53.548;9.964;2024-03-23T08:18:58;8.50;99.90
28614;DHT22;15806;53.548;9.964;2024-03-23T08:20:39;8.50;99.90
28614;DHT22;15806;53.548;9.964;2024-03-23T08:22:19;8.60;99.90
28614;DHT22;15806;53.548;9.964;2024-03-23T08:24:00;8.70;99.90
28614;DHT22;15806;53.548;9.964;2024-03-23T08:25:40;8.90;99.90
28614;DHT22;15806;53.548;9.964;2024-03-23T08:27:21;8.70;99.90
28614;DHT22;15806;53.548;9.964;2024-03-23T08:29:01;8.60;99.90
28614;DHT22;15806;53.548;9.964;2024-03-23T08:30:42;8.70;99.90
28614;DHT22;15806;53.548;9.964;2024-03-23T08:32:22;8.70;99.90
28614;DHT22;15806;53.548;9.964;2024-03-23T08:34:03;8.90;99.90
28614;DHT22;15806;53.548;9.964;2024-03-23T08:35:56;8.80;99.90
28614;DHT22;15806;53.548;9.964;2024-03-23T08:37:37;9.00;99.90
28614;DHT22;15806;53.548;9.964;2024-03-23T08:39:17;9.00;99.90
28614;DHT22;15806;53.548;9.964;2024-03-23T08:40:59;9.20;99.90
28614;DHT22;15806;53.548;9.964;2024-03-23T08:42:39;9.40;99.90
28614;DHT22;15806;53.548;9.964;2024-03-23T08:44:20;9.30;99.90
28614;DHT22;15806;53.548;9.964;2024-03-23T08:46:11;9.30;99.90
28614;DHT22;15806;53.548;9.964;2024-03-23T08:47:52;9.00;99.90
28614;DHT22;15806;53.548;9.964;2024-03-23T08:49:32;9.10;99.90
28614;DHT22;15806;53.548;9.964;2024-03-23T08:51:14;9.10;99.90
28614;DHT22;15806;53.548;9.964;2024-03-23T08:52:55;9.10;99.90
28614;DHT22;15806;53.548;9.964;2024-03-23T08:54:35;9.30;99.90
28614;DHT22;15806;53.548;9.964;2024-03-23T08:56:16;9.60;99.90
28614;DHT22;15806;53.548;9.964;2024-03-23T08:57:56;9.70;99.90
28614;DHT22;15806;53.548;9.964;2024-03-23T08:59:37;9.80;99.90
28614;DHT22;15806;53.548;9.964;2024-03-23T09:01:18;9.90;99.90
28614;DHT22;15806;53.548;9.964;2024-03-23T09:02:58;9.80;99.90
28614;DHT22;15806;53.548;9.964;2024-03-23T09:04:39;9.60;99.90
28614;DHT22;15806;53.548;9.964;2024-03-23T09:06:20;9.60;99.90
28614;DHT22;15806;53.548;9.964;2024-03-23T09:08:00;9.40;1.00
28614;DHT22;15806;53.548;9.964;2024-03-23T09:09:41;9.30;1.00
28614;DHT22;15806;53.548;9.964;2024-03-23T09:11:21;9.70;1.00
28614;DHT22;15806;53.548;9.964;2024-03-23T09:13:02;9.80;99.90
28614;DHT22;15806;53.548;9.964;2024-03-23T09:14:42;10.00;80.00
28614;DHT22;15806;53.548;9.964;2024-03-23T09:16:23;10.10;1.00
28614;DHT22;15806;53.548;9.964;2024-03-23T09:18:04;10.40;1.00
28614;DHT22;15806;53.548;9.964;2024-03-23T09:19:44;10.00;1.00
28614;DHT22;15806;53.548;9.964;2024-03-23T09:21:25;9.90;99.90
28614;DHT22;15806;53.548;9.964;2024-03-23T09:23:05;9.70;99.90
28614;DHT22;15806;53.548;9.964;2024-03-23T09:24:46;9.50;15.70
28614;DHT22;15806;53.548;9.964;2024-03-23T09:26:26;9.10;99.90
28614;DHT22;15806;53.548;9.964;2024-03-23T09:28:07;9.10;1.00
28614;DHT22;15806;53.548;9.964;2024-03-23T09:29:48;9.20;1.00
28614;DHT22;15806;53.548;9.964;2024-03-23T09:31:28;9.20;99.90
28614;DHT22;15806;53.548;9.964;2024-03-23T09:33:10;9.20;99.90
28614;DHT22;15806;53.548;9.964;2024-03-23T09:34:50;9.10;1.00
28614;DHT22;15806;53.548;9.964;2024-03-23T09:36:31;9.10;99.90
28614;DHT22;15806;53.548;9.964;2024-03-23T09:38:11;9.00;99.90
28614;DHT22;15806;53.548;9.964;2024-03-23T09:39:52;9.00;99.90
28614;DHT22;15806;53.548;9.964;2024-03-23T09:41:32;9.00;99.90
28614;DHT22;15806;53.548;9.964;2024-03-23T09:43:13;9.00;99.90
28614;DHT22;15806;53.548;9.964;2024-03-23T09:44:54;9.10;99.90
28614;DHT22;15806;53.548;9.964;2024-03-23T09:46:38;9.20;99.90
28614;DHT22;15806;53.548;9.964;2024-03-23T09:48:18;9.10;99.90
28614;DHT22;15806;53.548;9.964;2024-03-23T09:50:00;9.10;1.00
28614;DHT22;15806;53.548;9.964;2024-03-23T09:51:41;9.20;1.00
28614;DHT22;15806;53.548;9.964;2024-03-23T09:53:21;9.20;99.90
28614;DHT22;15806;53.548;9.964;2024-03-23T09:55:03;9.10;99.90
28614;DHT22;15806;53.548;9.964;2024-03-23T09:56:44;9.10;99.90
28614;DHT22;15806;53.548;9.964;2024-03-23T09:58:25;9.20;99.90
28614;DHT22;15806;53.548;9.964;2024-03-23T10:00:06;9.30;1.00
28614;DHT22;15806;53.548;9.964;2024-03-23T10:01:47;9.40;1.00
28614;DHT22;15806;53.548;9.964;2024-03-23T10:03:28;9.50;99.90
28614;DHT22;15806;53.548;9.964;2024-03-23T10:05:22;9.60;99.90
28614;DHT22;15806;53.548;9.964;2024-03-23T10:07:13;9.90;99.90
28614;DHT22;15806;53.548;9.964;2024-03-23T10:08:53;10.00;92.20
28614;DHT22;15806;53.548;9.964;2024-03-23T10:10:34;9.90;1.00
28614;DHT22;15806;53.548;9.964;2024-03-23T10:12:17;10.00;1.00
28614;DHT22;15806;53.548;9.964;2024-03-23T10:13:58;9.80;1.00
28614;DHT22;15806;53.548;9.964;2024-03-23T10:15:38;9.80;1.00
28614;DHT22;15806;53.548;9.964;2024-03-23T10:17:22;10.00;1.00
28614;DHT22;15806;53.548;9.964;2024-03-23T10:19:02;10.10;1.00
28614;DHT22;15806;53.548;9.964;2024-03-23T10:20:43;10.00;99.90
28614;DHT22;15806;53.548;9.964;2024-03-23T10:22:24;10.00;99.90
28614;DHT22;15806;53.548;9.964;2024-03-23T10:24:08;9.70;1.00
28614;DHT22;15806;53.548;9.964;2024-03-23T10:25:49;9.70;1.00
28614;DHT22;15806;53.548;9.964;2024-03-23T10:27:29;9.90;1.00
28614;DHT22;15806;53.548;9.964;2024-03-23T10:29:10;9.80;1.00
28614;DHT22;15806;53.548;9.964;2024-03-23T10:30:50;9.70;1.00
28614;DHT22;15806;53.548;9.964;2024-03-23T10:32:31;9.40;1.00
28614;DHT22;15806;53.548;9.964;2024-03-23T10:34:12;9.60;12.30
28614;DHT22;15806;53.548;9.964;2024-03-23T10:35:53;9.70;99.90
28614;DHT22;15806;53.548;9.964;2024-03-23T10:37:34;9.70;99.90
28614;DHT22;15806;53.548;9.964;2024-03-23T10:39:15;9.30;1.00
28614;DHT22;15806;53.548;9.964;2024-03-23T10:40:57;9.00;1.00
28614;DHT22;15806;53.548;9.964;2024-03-23T10:42:38;9.00;1.00
28614;DHT22;15806;53.548;9.964;2024-03-23T10:44:19;8.90;1.00
28614;DHT22;15806;53.548;9.964;2024-03-23T10:46:00;8.70;99.90
28614;DHT22;15806;53.548;9.964;2024-03-23T10:47:40;8.60;99.90
28614;DHT22;15806;53.548;9.964;2024-03-23T10:49:21;8.40;99.90
28614;DHT22;15806;53.548;9.964;2024-03-23T10:51:02;8.40;99.90
28614;DHT22;15806;53.548;9.964;2024-03-23T10:52:46;8.40;99.90
28614;DHT22;15806;53.548;9.964;2024-03-23T10:54:27;8.40;99.90
28614;DHT22;15806;53.548;9.964;2024-03-23T10:56:08;8.30;99.90
28614;DHT22;15806;53.548;9.964;2024-03-23T10:57:55;8.40;99.90
28614;DHT22;15806;53.548;9.964;2024-03-23T10:59:38;8.40;99.90
28614;DHT22;15806;53.548;9.964;2024-03-23T11:01:19;8.40;99.90
28614;DHT22;15806;53.548;9.964;2024-03-23T11:03:29;8.40;99.90
28614;DHT22;15806;53.548;9.964;2024-03-23T11:05:29;8.30;99.90
28614;DHT22;15806;53.548;9.964;2024-03-23T11:11:18;8.40;99.90
28614;DHT22;15806;53.548;9.964;2024-03-23T11:15:06;8.70;99.90
28614;DHT22;15806;53.548;9.964;2024-03-23T11:17:08;8.70;99.90
28614;DHT22;15806;53.548;9.964;2024-03-23T11:18:50;8.70;99.90
28614;DHT22;15806;53.548;9.964;2024-03-23T11:20:34;8.70;99.90
28614;DHT22;15806;53.548;9.964;2024-03-23T11:24:23;8.80;99.90
28614;DHT22;15806;53.548;9.964;2024-03-23T11:26:07;9.00;99.90
28614;DHT22;15806;53.548;9.964;2024-03-23T11:27:49;9.10;99.90
28614;DHT22;15806;53.548;9.964;2024-03-23T11:29:30;9.10;99.90
28614;DHT22;15806;53.548;9.964;2024-03-23T11:31:10;9.20;1.00
28614;DHT22;15806;53.548;9.964;2024-03-23T11:32:57;9.10;99.90
28614;DHT22;15806;53.548;9.964;2024-03-23T11:34:38;9.10;99.90
28614;DHT22;15806;53.548;9.964;2024-03-23T11:36:19;9.10;99.90
28614;DHT22;15806;53.548;9.964;2024-03-23T11:39:49;9.80;1.00
28614;DHT22;15806;53.548;9.964;2024-03-23T11:41:29;10.10;1.00
28614;DHT22;15806;53.548;9.964;2024-03-23T11:43:20;10.60;1.00
28614;DHT22;15806;53.548;9.964;2024-03-23T11:45:08;11.10;12.90
28614;DHT22;15806;53.548;9.964;2024-03-23T11:46:49;12.90;1.00
28614;DHT22;15806;53.548;9.964;2024-03-23T11:48:29;14.40;99.90
28614;DHT22;15806;53.548;9.964;2024-03-23T11:50:10;15.00;1.00
28614;DHT22;15806;53.548;9.964;2024-03-23T11:52:00;14.80;99.90
28614;DHT22;15806;53.548;9.964;2024-03-23T11:53:41;13.30;99.90
28614;DHT22;15806;53.548;9.964;2024-03-23T11:55:21;12.40;99.90